Terminal Aerodrome Forecast
Issued by NWS

Home | Current Version | Previous Version | Graphics & Text | Print | Product List | Glossary On
Versions: 1 2 3 4 5 6 7 8 9 10 11 12 13 14 15
500
FTUS42 KMHX 281732
TAFPGV
TAF
KPGV 281732Z 2818/2918 VRB05KT P6SM SKC
     FM290800 00000KT 4SM BR SKC
     FM291100 VRB03KT P6SM SKC
     FM291600 16006KT P6SM FEW050
      AMD LTD TO CLD VIS AND WIND=

USA.gov is the U.S. government's official web portal to all federal, state and local government web resources and services.